Plessisville, Canada
Current Conditions -  °F | °C
As of 12:00 AM on Sunday 26 Oct 2014 (Local Time) from CYQB Reporting Station
Rain Showers Rain Showers  
Wind Chill:   Ceiling: 1500
Heat Index:   Visibility: 10mi
Dew Point:   Wind: 8mph
Humidity: 93%   Direction: 70°ENE
Pressure: 29.4"   Gusts: NA
Location:  46.22°N, 71.77°W
Report Text: CYQB 260400Z 07007KT 10SM -SHRA SCT008 BKN015 OVC025 05/04 A2940 RMK SF3SC4SC1 SLP958
Loading
Personal Weather Stations






























Interactive Weather Map
Tropical Storm Tracking
New forecast layout! Learn more

10-Day Weather Forecast

Advertisements
Track Severe Weather on mobile